Сомбор, Croatia

23. мај 2018, 16:51 CEST (GMT +0200)
Coutryside | | Change Station

Надм.вис. 384 ft 46.00 °N, 18.46 °E | Updated 19 minutes ago

Делимично облачно
Делимично облачно
81.3 °F
Субјективни осећај 82 °F
С
3.0
Ветар Променљив Ветар из Источни
Gusts 8.0 mph

Данас
Макс. -- | Мин. -- °F
--% Вероватноћа за падавине
Јуче
Макс. -- | Мин. -- °F
Precip. -- инч
Притисак 30.01 инч
Видљивост 6.2 миља
Облаци Мало облачно 4300 ft
Мало облачно 20000 ft
Топлотни индекс 82 °F
Тачка росе 62 °F
Влажност ваздуха 53%
Киша 0.00 инч
Висина снега Није доступно.
5:04 AM 8:18 PM
Друга четвртина, 66% visible
METAR LHPP 231345Z 08006KT 9999 SCT043 SCT200 25/15 Q1016
Притисак 30.01 инч
Видљивост 6.2 миља
Облаци Мало облачно 4300 ft
Мало облачно 20000 ft
Топлотни индекс 82 °F
Тачка росе 62 °F
Влажност ваздуха 53%
Киша 0.00 инч
Висина снега Није доступно.
5:04 AM 8:18 PM
Друга четвртина, 66% visible
METAR LHPP 231345Z 08006KT 9999 SCT043 SCT200 25/15 Q1016

Get Severe Weather Alerts

Thanks for signing up!

Be on the lookout for a verification email in your inbox.

You'll start receiving the daily forecast at 6 AM.

×

10-Day Weather Forecast

×

Almanac

Астрономија

May. 23, 2018 Излазак Залазак
Тренутно време
Цивилни сумрак
Наутички сумрак
Астрономски сумрак
Месец
Трајање видљиве светлости
Обданица
Tomorrow will be .
, % of the Moon is Illuminated

Данашњи екстреми

Највише Најниже

Community

Category 6

Welcome to Category 6. This is the collective home for Weather Underground's featured writeups by Dr. Jeff Masters (right), Bob Henson (left), Chris Burt, and other regular contributors.

Nearby

Квалитет ваздуха (AQ)

  Квалитет ваздуха (AQ) Индекс AQ Загађење
Not available.

Висина снега

станица Висина снега Висина

Земљотрес

Место Удаљеност Магнитуда Време и датум
Минимална магнитуда која се објављује је 2.5

Темп. воде у приобаљу

Место Температура

Stations

Оближње метео-станице

Локација станице Темп. Субјективни осећај Тачка росе Влажност ваздуха Ветар Precip. Надм.вис. Ажурирано Тип